Time;durP1;ratioP1;P1;durP2;ratioP2;P2;SDS_P1;SDS_P2;PMS_P1;PMS_P2;Temp;Humidity;BMP_temperature;BMP_pressure;BME280_temperature;BME280_humidity;BME280_pressure;Samples;Min_cycle;Max_cycle;Signal;HPM_P1;HPM_P2
2023/12/27 00:00:47;;;;;;;7.85;2.13;;;7.00;99.90;;;;;;5036005;28;20030;-62
2023/12/27 00:03:12;;;;;;;12.75;2.63;;;7.00;99.90;;;;;;5035947;28;20105;-62
2023/12/27 00:05:38;;;;;;;7.38;1.73;;;7.00;99.90;;;;;;5035708;28;20057;-62
2023/12/27 00:08:03;;;;;;;7.75;1.95;;;7.00;99.90;;;;;;5035445;28;20084;-68
2023/12/27 00:10:29;;;;;;;13.48;2.67;;;7.00;99.90;;;;;;5035944;28;20022;-68
2023/12/27 00:12:54;;;;;;;8.82;2.65;;;7.00;99.90;;;;;;5036595;28;20053;-68
2023/12/27 00:15:20;;;;;;;7.55;1.98;;;7.10;99.90;;;;;;5036221;28;20022;-68
2023/12/27 00:17:46;;;;;;;15.63;3.13;;;7.20;99.90;;;;;;5035516;28;20111;-69
2023/12/27 00:20:12;;;;;;;9.80;3.60;;;7.10;99.90;;;;;;5035616;28;20037;-68
2023/12/27 00:22:37;;;;;;;13.45;2.55;;;7.00;99.90;;;;;;5035325;28;20022;-68
2023/12/27 00:25:03;;;;;;;8.57;1.98;;;7.00;99.90;;;;;;5035608;28;20021;-68
2023/12/27 00:27:29;;;;;;;14.70;2.30;;;7.00;99.90;;;;;;5035425;28;20057;-69
2023/12/27 00:29:55;;;;;;;12.27;1.92;;;6.90;99.90;;;;;;5019894;28;20022;-68
2023/12/27 00:32:20;;;;;;;6.90;1.65;;;6.70;99.90;;;;;;5036034;28;20022;-68
2023/12/27 00:34:55;;;;;;;10.80;2.20;;;6.70;99.90;;;;;;5035302;28;20147;-68
2023/12/27 00:37:20;;;;;;;14.13;2.40;;;6.70;99.90;;;;;;5036615;28;20029;-62
2023/12/27 00:39:47;;;;;;;6.72;2.33;;;6.70;99.90;;;;;;5034814;28;20018;-62
2023/12/27 00:42:13;;;;;;;9.75;2.30;;;6.80;99.90;;;;;;5035383;28;20041;-62
2023/12/27 00:44:39;;;;;;;8.18;2.03;;;6.80;99.90;;;;;;5035331;28;20025;-62
2023/12/27 00:47:05;;;;;;;8.13;2.75;;;6.90;99.90;;;;;;5035881;28;20022;-62
2023/12/27 00:49:31;;;;;;;6.72;2.40;;;6.90;99.90;;;;;;5033981;28;20024;-62
2023/12/27 00:51:56;;;;;;;6.72;2.60;;;6.80;99.90;;;;;;5034805;28;20057;-62
2023/12/27 00:54:22;;;;;;;7.20;2.40;;;6.70;99.90;;;;;;5035201;28;20038;-62
2023/12/27 00:56:49;;;;;;;6.18;2.33;;;6.70;99.90;;;;;;5035010;28;20030;-62
2023/12/27 00:59:14;;;;;;;9.63;3.25;;;6.80;99.90;;;;;;5034977;28;20026;-62
2023/12/27 01:01:40;;;;;;;9.52;3.47;;;6.80;99.90;;;;;;5035304;28;20026;-62
2023/12/27 01:04:06;;;;;;;11.80;2.72;;;6.80;99.90;;;;;;5034855;28;20041;-62
2023/12/27 01:06:31;;;;;;;12.48;4.07;;;6.80;99.90;;;;;;5035084;28;20045;-62
2023/12/27 01:08:57;;;;;;;9.00;2.45;;;6.70;99.90;;;;;;5034735;28;20029;-62
2023/12/27 01:11:22;;;;;;;8.63;2.42;;;6.70;99.90;;;;;;5034516;28;20053;-62
2023/12/27 01:13:48;;;;;;;8.65;2.00;;;6.80;99.90;;;;;;5034358;28;20029;-62
2023/12/27 01:16:15;;;;;;;13.05;2.90;;;6.80;99.90;;;;;;5034885;28;20022;-62
2023/12/27 01:18:40;;;;;;;9.55;2.55;;;6.80;99.90;;;;;;5034431;28;20038;-62
2023/12/27 01:21:06;;;;;;;8.30;2.03;;;6.80;99.90;;;;;;5034949;28;20129;-62
2023/12/27 01:23:32;;;;;;;10.38;2.42;;;6.70;99.90;;;;;;5034878;28;20033;-62
2023/12/27 01:25:58;;;;;;;10.05;2.63;;;6.40;99.90;;;;;;5034464;28;20022;-62
2023/12/27 01:28:24;;;;;;;8.13;1.80;;;6.30;99.90;;;;;;5034387;28;20018;-62
2023/12/27 01:30:49;;;;;;;10.15;2.03;;;6.30;99.90;;;;;;5033848;28;20033;-62
2023/12/27 01:33:15;;;;;;;7.05;2.53;;;6.30;99.90;;;;;;5035037;28;20033;-62
2023/12/27 01:35:40;;;;;;;15.00;2.80;;;6.30;99.90;;;;;;5034304;28;20091;-62
2023/12/27 01:38:06;;;;;;;9.27;2.78;;;6.40;99.90;;;;;;5034164;28;20022;-62
2023/12/27 01:40:31;;;;;;;5.72;2.95;;;6.10;99.90;;;;;;5034149;28;20036;-62
2023/12/27 01:42:57;;;;;;;13.05;3.83;;;6.00;99.90;;;;;;5034834;28;20025;-62
2023/12/27 01:45:22;;;;;;;11.20;3.45;;;6.00;99.90;;;;;;5034028;28;20021;-62
2023/12/27 01:47:49;;;;;;;12.30;3.60;;;6.00;99.90;;;;;;5033984;28;20021;-62
2023/12/27 01:50:15;;;;;;;13.50;3.42;;;6.00;99.90;;;;;;5034116;28;20026;-62
2023/12/27 01:52:42;;;;;;;12.15;3.30;;;6.00;99.90;;;;;;5034126;28;20040;-62
2023/12/27 01:55:09;;;;;;;9.48;2.40;;;6.00;99.90;;;;;;5033568;28;20026;-62
2023/12/27 01:57:38;;;;;;;8.90;2.97;;;6.00;99.90;;;;;;5033750;28;20033;-62
2023/12/27 02:00:05;;;;;;;9.68;2.38;;;6.00;99.90;;;;;;5033040;28;20026;-62
2023/12/27 02:02:30;;;;;;;9.65;2.80;;;6.10;99.90;;;;;;5033480;28;20029;-62
2023/12/27 02:04:56;;;;;;;12.60;2.38;;;6.10;99.90;;;;;;5033758;28;20026;-62
2023/12/27 02:07:21;;;;;;;4.45;1.98;;;6.00;99.90;;;;;;5033657;28;20056;-62
2023/12/27 02:09:49;;;;;;;10.55;1.95;;;5.90;99.90;;;;;;5034047;28;20049;-62
2023/12/27 02:12:35;;;;;;;8.27;2.80;;;6.00;99.90;;;;;;5033361;28;20018;-62
2023/12/27 02:15:01;;;;;;;13.30;2.78;;;6.10;99.90;;;;;;5016779;28;20030;-62
2023/12/27 02:17:27;;;;;;;4.97;2.33;;;6.10;99.90;;;;;;5033767;28;20030;-62
2023/12/27 02:19:54;;;;;;;9.50;2.65;;;6.10;99.90;;;;;;5033871;28;20037;-62
2023/12/27 02:22:22;;;;;;;13.13;3.15;;;6.00;99.90;;;;;;5033385;28;20022;-62
2023/12/27 02:24:53;;;;;;;9.77;3.67;;;5.90;99.90;;;;;;5033978;28;20022;-62
2023/12/27 02:27:19;;;;;;;6.82;2.30;;;5.90;99.90;;;;;;5033868;28;20032;-62
2023/12/27 02:29:45;;;;;;;9.70;2.28;;;5.80;99.90;;;;;;5033789;28;20081;-62
2023/12/27 02:32:11;;;;;;;8.00;2.45;;;5.70;99.90;;;;;;5033894;28;20117;-62
2023/12/27 02:34:36;;;;;;;11.95;2.85;;;5.70;99.90;;;;;;5033248;28;20022;-62
2023/12/27 02:37:02;;;;;;;5.75;2.03;;;5.70;99.90;;;;;;5033177;28;20021;-62
2023/12/27 02:39:28;;;;;;;10.82;2.25;;;5.70;99.90;;;;;;5032920;28;20026;-62
2023/12/27 02:41:53;;;;;;;10.50;2.28;;;5.50;99.90;;;;;;5033023;28;20018;-62
2023/12/27 02:44:19;;;;;;;7.20;2.10;;;5.40;99.90;;;;;;5033124;28;20045;-62
2023/12/27 02:46:44;;;;;;;12.18;2.80;;;5.40;99.90;;;;;;5033885;28;20018;-62
2023/12/27 02:49:10;;;;;;;18.15;2.25;;;5.40;99.90;;;;;;5033510;28;20025;-62
2023/12/27 02:51:35;;;;;;;4.93;2.05;;;5.40;99.90;;;;;;5033205;28;20053;-62
2023/12/27 02:54:01;;;;;;;11.00;1.95;;;5.50;99.90;;;;;;5032701;28;20022;-62
2023/12/27 02:56:27;;;;;;;5.47;2.28;;;5.60;99.90;;;;;;5032702;28;20108;-62
2023/12/27 02:58:52;;;;;;;6.22;2.63;;;5.60;99.90;;;;;;5033087;28;20032;-62
2023/12/27 03:01:18;;;;;;;16.33;2.30;;;5.70;99.90;;;;;;5032863;28;20038;-62
2023/12/27 03:03:43;;;;;;;5.32;1.98;;;5.60;99.90;;;;;;5033047;28;20052;-62
2023/12/27 03:06:09;;;;;;;6.40;2.38;;;5.70;99.90;;;;;;5033030;28;20022;-62
2023/12/27 03:08:36;;;;;;;10.38;1.73;;;5.70;99.90;;;;;;5033179;28;20022;-62
2023/12/27 03:11:02;;;;;;;4.78;1.85;;;5.40;99.90;;;;;;5032927;28;20030;-62
2023/12/27 03:13:28;;;;;;;9.95;2.22;;;5.50;99.90;;;;;;5035694;28;20076;-62
2023/12/27 03:15:53;;;;;;;8.73;2.45;;;5.60;99.90;;;;;;5037365;28;20084;-62
2023/12/27 03:18:19;;;;;;;12.00;2.00;;;5.60;99.90;;;;;;5036696;28;20083;-62
2023/12/27 03:20:44;;;;;;;10.15;2.22;;;5.60;99.90;;;;;;5036664;28;20026;-63
2023/12/27 03:23:10;;;;;;;13.73;2.40;;;5.50;99.90;;;;;;5037470;28;20156;-62
2023/12/27 03:25:36;;;;;;;5.47;1.88;;;5.20;99.90;;;;;;5037086;28;20049;-62
2023/12/27 03:28:01;;;;;;;8.60;3.05;;;5.20;99.90;;;;;;5036873;28;20044;-62
2023/12/27 03:30:27;;;;;;;5.28;2.08;;;5.30;99.90;;;;;;5036611;28;20133;-62
2023/12/27 03:32:52;;;;;;;6.00;1.92;;;5.30;99.90;;;;;;5036578;28;20089;-62
2023/12/27 03:35:18;;;;;;;10.02;2.47;;;5.30;99.90;;;;;;5036475;28;20022;-62
2023/12/27 03:37:45;;;;;;;5.60;1.90;;;5.30;99.90;;;;;;5036864;28;20026;-62
2023/12/27 03:40:11;;;;;;;9.70;1.73;;;5.10;99.90;;;;;;5036335;28;20042;-62
2023/12/27 03:42:36;;;;;;;8.25;2.20;;;5.00;99.90;;;;;;5036444;28;20026;-62
2023/12/27 03:45:02;;;;;;;7.35;2.67;;;4.90;99.90;;;;;;5036010;28;20033;-62
2023/12/27 03:47:27;;;;;;;8.50;1.88;;;4.90;99.90;;;;;;5035814;28;20029;-62
2023/12/27 03:49:53;;;;;;;7.72;1.70;;;4.90;99.90;;;;;;5036760;28;20021;-62
2023/12/27 03:52:19;;;;;;;6.32;1.63;;;4.60;99.90;;;;;;5036170;28;20105;-62
2023/12/27 03:54:46;;;;;;;3.90;1.55;;;4.70;99.90;;;;;;5035826;28;20077;-62
2023/12/27 03:57:11;;;;;;;7.78;1.92;;;4.90;99.90;;;;;;5035708;28;20048;-62
2023/12/27 03:59:40;;;;;;;5.07;1.52;;;5.00;99.90;;;;;;5036586;28;20022;-62
2023/12/27 04:02:06;;;;;;;12.80;2.38;;;5.00;99.90;;;;;;5036085;28;20064;-62
2023/12/27 04:04:33;;;;;;;7.05;2.03;;;5.00;99.90;;;;;;5035917;28;20076;-62
2023/12/27 04:06:59;;;;;;;7.57;2.50;;;5.00;99.90;;;;;;5035865;28;20026;-62
2023/12/27 04:09:24;;;;;;;5.20;2.35;;;5.00;99.90;;;;;;5035837;28;20025;-62
2023/12/27 04:11:50;;;;;;;6.05;1.80;;;5.20;99.90;;;;;;5035471;28;20060;-62
2023/12/27 04:14:16;;;;;;;10.40;2.40;;;5.20;99.90;;;;;;5036373;28;20025;-62
2023/12/27 04:16:42;;;;;;;6.65;1.88;;;5.20;99.90;;;;;;5036003;28;20026;-62
2023/12/27 04:19:07;;;;;;;8.57;2.15;;;5.20;99.90;;;;;;5035194;28;20060;-62
2023/12/27 04:21:33;;;;;;;9.18;1.63;;;5.30;99.90;;;;;;5035557;28;20026;-62
2023/12/27 04:23:59;;;;;;;5.20;2.10;;;5.20;99.90;;;;;;5035582;28;20025;-62
2023/12/27 04:26:24;;;;;;;17.70;2.60;;;5.20;99.90;;;;;;5036294;28;20053;-62
2023/12/27 04:28:50;;;;;;;4.72;1.55;;;5.10;99.90;;;;;;5035471;28;20061;-62
2023/12/27 04:31:15;;;;;;;10.70;2.10;;;5.10;99.90;;;;;;5035419;28;20029;-62
2023/12/27 04:33:41;;;;;;;6.70;1.77;;;5.00;99.90;;;;;;5035393;28;20018;-62
2023/12/27 04:36:06;;;;;;;4.45;1.48;;;5.00;99.90;;;;;;5035892;28;20089;-62
2023/12/27 04:38:32;;;;;;;8.50;1.60;;;5.00;99.90;;;;;;5035015;28;20061;-62
2023/12/27 04:40:57;;;;;;;5.78;1.77;;;4.90;99.90;;;;;;5035357;28;20026;-62
2023/12/27 04:43:23;;;;;;;3.53;2.10;;;4.80;99.90;;;;;;5035215;28;20077;-62
2023/12/27 04:45:49;;;;;;;5.00;1.70;;;4.90;99.90;;;;;;5035460;28;20014;-62
2023/12/27 04:48:15;;;;;;;5.43;1.58;;;4.90;99.90;;;;;;5035149;28;20022;-62
2023/12/27 04:50:40;;;;;;;11.43;1.50;;;4.90;99.90;;;;;;5034853;28;20032;-62
2023/12/27 04:53:06;;;;;;;6.90;1.55;;;4.90;99.90;;;;;;5035150;28;20033;-62
2023/12/27 04:55:31;;;;;;;11.07;1.55;;;4.90;99.90;;;;;;5034663;28;20026;-62
2023/12/27 04:57:57;;;;;;;7.40;2.20;;;5.00;99.90;;;;;;5034944;28;20037;-62
2023/12/27 05:00:23;;;;;;;6.10;1.95;;;5.10;99.90;;;;;;5034665;28;20026;-62
2023/12/27 05:02:49;;;;;;;7.28;1.67;;;5.20;99.90;;;;;;5035401;28;20025;-62
2023/12/27 05:05:14;;;;;;;8.75;1.92;;;5.20;99.90;;;;;;5034806;28;20026;-62
2023/12/27 05:07:41;;;;;;;5.65;1.70;;;5.10;99.90;;;;;;5035276;28;20044;-62
2023/12/27 05:10:07;;;;;;;4.38;1.45;;;5.00;99.90;;;;;;5034728;28;20030;-62
2023/12/27 05:12:32;;;;;;;4.57;1.42;;;4.90;99.90;;;;;;5035619;28;20021;-62
2023/12/27 05:14:58;;;;;;;5.15;1.63;;;4.90;99.90;;;;;;5035434;28;20136;-62
2023/12/27 05:17:23;;;;;;;7.63;1.70;;;4.90;99.90;;;;;;5034601;28;20026;-62
2023/12/27 05:19:49;;;;;;;6.05;2.00;;;5.00;99.90;;;;;;5035095;28;20026;-62
2023/12/27 05:22:16;;;;;;;8.82;2.00;;;5.00;99.90;;;;;;5034548;28;20026;-62
2023/12/27 05:24:42;;;;;;;6.35;1.85;;;4.90;99.90;;;;;;5034311;28;20017;-62
2023/12/27 05:27:07;;;;;;;26.25;1.90;;;5.00;99.90;;;;;;5034313;28;20085;-62
2023/12/27 05:29:34;;;;;;;7.65;2.10;;;5.00;99.90;;;;;;5034100;28;20109;-62
2023/12/27 05:32:00;;;;;;;4.18;1.67;;;4.90;99.90;;;;;;5035241;28;20033;-62
2023/12/27 05:34:27;;;;;;;8.05;2.05;;;4.90;99.90;;;;;;5033560;28;20026;-62
2023/12/27 05:36:52;;;;;;;8.10;2.10;;;4.90;99.90;;;;;;5033566;28;20045;-62
2023/12/27 05:39:18;;;;;;;10.23;2.05;;;4.90;99.90;;;;;;5034778;28;20033;-62
2023/12/27 05:41:44;;;;;;;5.72;2.20;;;4.90;99.90;;;;;;5034508;28;20029;-61
2023/12/27 05:44:09;;;;;;;7.70;1.73;;;4.90;99.90;;;;;;5034118;28;20095;-62
2023/12/27 05:46:35;;;;;;;7.57;1.70;;;4.80;99.90;;;;;;5033960;28;20108;-62
2023/12/27 05:49:01;;;;;;;17.38;1.98;;;4.80;99.90;;;;;;5033959;28;20022;-62
2023/12/27 05:51:26;;;;;;;11.15;1.83;;;4.80;99.90;;;;;;5034398;28;20117;-62
2023/12/27 05:53:52;;;;;;;8.73;2.40;;;4.60;99.90;;;;;;5034361;28;20025;-62
2023/12/27 05:56:18;;;;;;;5.63;1.92;;;4.60;99.90;;;;;;5033945;28;20030;-62
2023/12/27 05:58:44;;;;;;;8.23;2.65;;;4.70;99.90;;;;;;5033748;28;20030;-61
2023/12/27 06:01:09;;;;;;;4.28;2.28;;;4.80;99.90;;;;;;5033422;28;20030;-62
2023/12/27 06:03:35;;;;;;;8.85;2.03;;;4.90;99.90;;;;;;5033737;28;20025;-62
2023/12/27 06:06:04;;;;;;;9.68;2.30;;;5.00;99.90;;;;;;5033858;28;20113;-62
2023/12/27 06:08:29;;;;;;;8.23;1.77;;;5.10;99.90;;;;;;5033386;28;20090;-62
2023/12/27 06:10:55;;;;;;;9.73;2.17;;;5.10;99.90;;;;;;5033625;28;20065;-62
2023/12/27 06:13:21;;;;;;;11.50;2.17;;;5.10;99.90;;;;;;5033829;28;20033;-62
2023/12/27 06:15:46;;;;;;;10.75;2.22;;;5.20;99.90;;;;;;5033323;28;20018;-62
2023/12/27 06:18:12;;;;;;;6.68;2.33;;;5.30;99.90;;;;;;5033095;28;20041;-62
2023/12/27 06:20:37;;;;;;;5.07;2.10;;;5.40;99.90;;;;;;5033199;28;20191;-62
2023/12/27 06:23:03;;;;;;;5.32;2.08;;;5.50;99.90;;;;;;5033526;28;20022;-62
2023/12/27 06:25:29;;;;;;;5.47;2.33;;;5.70;99.90;;;;;;5033363;28;20025;-62
2023/12/27 06:27:54;;;;;;;7.82;2.42;;;5.80;99.90;;;;;;5033142;28;20022;-61
2023/12/27 06:30:20;;;;;;;8.75;2.95;;;5.90;99.90;;;;;;5034171;28;20176;-62
2023/12/27 06:32:46;;;;;;;15.15;2.45;;;6.00;99.90;;;;;;5033013;28;20033;-62
2023/12/27 06:35:12;;;;;;;8.10;2.88;;;6.10;99.90;;;;;;5033392;28;20033;-62
2023/12/27 06:37:39;;;;;;;12.73;3.20;;;6.10;99.90;;;;;;5033589;28;20032;-62
2023/12/27 06:40:05;;;;;;;17.85;4.57;;;6.10;99.90;;;;;;5033137;28;20030;-62
2023/12/27 06:42:31;;;;;;;12.73;3.10;;;6.10;99.90;;;;;;5033135;28;20041;-62
2023/12/27 06:44:56;;;;;;;12.40;2.97;;;6.10;99.90;;;;;;5033174;28;20052;-62
2023/12/27 06:47:22;;;;;;;11.50;2.80;;;6.20;99.90;;;;;;5032711;28;20090;-62
2023/12/27 06:49:47;;;;;;;12.05;3.05;;;6.10;99.90;;;;;;5033982;28;20041;-62
2023/12/27 06:52:13;;;;;;;10.65;3.30;;;6.00;99.90;;;;;;5033812;28;20030;-62
2023/12/27 06:54:39;;;;;;;13.13;3.17;;;6.00;99.90;;;;;;5033085;28;20026;-62
2023/12/27 06:57:04;;;;;;;13.30;3.08;;;6.00;99.90;;;;;;5032936;28;20026;-62
2023/12/27 06:59:30;;;;;;;19.55;3.35;;;6.00;99.90;;;;;;5033002;28;20030;-62
2023/12/27 07:01:55;;;;;;;24.67;4.13;;;6.10;99.90;;;;;;5033062;28;20026;-62
2023/12/27 07:04:21;;;;;;;25.63;6.60;;;6.10;99.90;;;;;;5033346;28;20018;-62
2023/12/27 07:06:47;;;;;;;22.42;5.05;;;6.10;99.90;;;;;;5032599;28;20049;-62
2023/12/27 07:09:15;;;;;;;20.98;5.07;;;6.10;99.90;;;;;;5032886;28;20026;-62
2023/12/27 07:11:40;;;;;;;23.77;5.07;;;6.00;99.90;;;;;;5032571;28;20026;-62
2023/12/27 07:14:06;;;;;;;24.90;5.63;;;6.00;99.90;;;;;;5032788;28;20026;-62
2023/12/27 07:16:31;;;;;;;40.53;7.25;;;6.00;99.90;;;;;;5032601;28;20022;-62
2023/12/27 07:18:58;;;;;;;33.10;7.72;;;6.00;99.90;;;;;;5032411;28;20030;-62
2023/12/27 07:21:23;;;;;;;28.98;6.07;;;6.00;99.90;;;;;;5032679;28;20022;-62
2023/12/27 07:23:49;;;;;;;31.42;6.18;;;6.10;99.90;;;;;;5032741;28;20018;-61
2023/12/27 07:26:14;;;;;;;43.65;6.63;;;6.20;99.90;;;;;;5032996;28;20029;-62
2023/12/27 07:28:40;;;;;;;32.85;7.18;;;6.20;99.90;;;;;;5032814;28;20022;-62
2023/12/27 07:31:07;;;;;;;43.17;6.60;;;6.20;99.90;;;;;;5032451;28;20029;-62
2023/12/27 07:33:38;;;;;;;50.30;6.90;;;6.10;99.90;;;;;;5032641;28;20036;-62
2023/12/27 07:36:04;;;;;;;30.20;5.60;;;6.10;99.90;;;;;;5033205;28;20120;-62
2023/12/27 07:38:30;;;;;;;32.45;5.68;;;6.00;99.90;;;;;;5032488;28;20026;-62
2023/12/27 07:40:56;;;;;;;31.70;6.70;;;6.10;99.90;;;;;;5032581;28;20022;-61
2023/12/27 07:43:22;;;;;;;29.83;7.05;;;6.00;99.90;;;;;;5033078;28;20094;-62
2023/12/27 07:45:48;;;;;;;26.92;7.35;;;6.10;99.90;;;;;;5032550;28;20026;-62
2023/12/27 07:48:13;;;;;;;24.88;6.35;;;6.10;99.90;;;;;;5032644;28;20033;-62
2023/12/27 07:50:40;;;;;;;44.30;7.30;;;6.20;99.90;;;;;;5033077;28;20026;-62
2023/12/27 07:53:06;;;;;;;39.35;8.55;;;6.30;99.90;;;;;;5032474;28;20029;-61
2023/12/27 07:55:31;;;;;;;29.63;7.30;;;6.30;99.90;;;;;;5032554;28;20104;-62
2023/12/27 07:57:57;;;;;;;27.73;6.75;;;6.30;99.90;;;;;;5032220;28;20076;-62
2023/12/27 08:00:23;;;;;;;29.08;7.72;;;6.30;99.90;;;;;;5036235;28;20121;-62
2023/12/27 08:02:49;;;;;;;34.42;7.95;;;6.30;99.90;;;;;;5036041;28;20045;-62
2023/12/27 08:05:15;;;;;;;36.05;7.70;;;6.30;99.90;;;;;;5035588;28;20077;-62
2023/12/27 08:07:42;;;;;;;28.73;8.38;;;6.30;99.90;;;;;;5035543;28;20022;-62
2023/12/27 08:10:09;;;;;;;40.95;7.43;;;6.30;99.90;;;;;;5036362;28;20026;-62
2023/12/27 08:12:34;;;;;;;29.15;8.13;;;6.20;99.90;;;;;;5036335;28;20033;-62
2023/12/27 08:15:00;;;;;;;41.65;7.35;;;6.30;99.90;;;;;;5035696;28;20022;-61
2023/12/27 08:17:26;;;;;;;33.80;8.10;;;6.40;99.90;;;;;;5035463;28;20034;-61
2023/12/27 08:19:53;;;;;;;25.77;7.72;;;6.40;99.90;;;;;;5036313;28;20120;-62
2023/12/27 08:22:20;;;;;;;31.75;7.95;;;6.50;99.90;;;;;;5035156;28;20029;-62
2023/12/27 08:24:45;;;;;;;24.75;7.30;;;6.60;99.90;;;;;;5035639;28;20022;-62
2023/12/27 08:27:11;;;;;;;32.38;7.95;;;6.70;99.90;;;;;;5035596;28;20022;-62
2023/12/27 08:29:36;;;;;;;31.13;7.85;;;6.80;99.90;;;;;;5036249;28;20026;-61
2023/12/27 08:32:02;;;;;;;26.63;7.75;;;6.80;99.90;;;;;;5035753;28;20072;-62
2023/12/27 08:34:29;;;;;;;31.75;9.30;;;6.90;99.90;;;;;;5035666;28;20025;-62
2023/12/27 08:36:55;;;;;;;39.40;7.82;;;7.00;99.90;;;;;;5035233;28;20120;-61
2023/12/27 08:39:20;;;;;;;33.20;7.57;;;7.00;99.90;;;;;;5035990;28;20045;-62
2023/12/27 08:41:46;;;;;;;29.00;7.82;;;6.80;99.90;;;;;;5035382;28;20022;-62
2023/12/27 08:44:12;;;;;;;24.90;7.32;;;6.80;99.90;;;;;;5035050;28;20032;-61
2023/12/27 08:46:39;;;;;;;29.52;8.35;;;6.80;99.90;;;;;;5035224;28;20060;-61
2023/12/27 08:49:04;;;;;;;23.17;7.68;;;6.60;99.90;;;;;;5035176;28;20049;-62
2023/12/27 08:51:30;;;;;;;20.60;7.55;;;6.60;99.90;;;;;;5034749;28;20026;-62
2023/12/27 08:53:55;;;;;;;21.17;6.63;;;6.80;99.90;;;;;;5035124;28;20029;-62
2023/12/27 08:56:21;;;;;;;20.58;6.13;;;6.90;99.90;;;;;;5035108;28;20045;-61
2023/12/27 08:58:47;;;;;;;16.88;5.70;;;7.10;99.90;;;;;;5034720;28;20026;-62
2023/12/27 09:01:12;;;;;;;20.08;6.25;;;7.20;99.90;;;;;;5034949;28;20053;-61
2023/12/27 09:03:39;;;;;;;15.02;5.97;;;7.10;99.90;;;;;;5034950;28;20071;-62
2023/12/27 09:06:05;;;;;;;20.90;6.10;;;7.30;99.90;;;;;;5034592;28;20060;-62
2023/12/27 09:08:30;;;;;;;16.38;5.82;;;7.20;99.90;;;;;;5034701;28;20065;-62
2023/12/27 09:10:56;;;;;;;19.92;6.28;;;7.50;99.90;;;;;;5033608;28;20018;-62
2023/12/27 09:13:21;;;;;;;11.52;5.40;;;7.60;99.90;;;;;;5035122;28;20033;-62
2023/12/27 09:15:47;;;;;;;17.38;5.78;;;7.70;99.90;;;;;;5034653;28;20029;-62
2023/12/27 09:18:12;;;;;;;20.92;6.82;;;7.70;99.90;;;;;;5034199;28;20044;-62
2023/12/27 09:20:38;;;;;;;14.32;5.50;;;7.80;99.90;;;;;;5034547;28;20030;-62
2023/12/27 09:23:03;;;;;;;20.08;6.07;;;7.90;99.90;;;;;;5035207;28;20029;-61
2023/12/27 09:25:29;;;;;;;15.50;6.82;;;7.70;99.90;;;;;;5034529;28;20026;-61
2023/12/27 09:27:55;;;;;;;18.75;6.63;;;7.80;99.90;;;;;;5034085;28;20026;-61
2023/12/27 09:30:20;;;;;;;12.32;6.25;;;7.70;99.90;;;;;;5034326;28;20026;-61
2023/12/27 09:32:46;;;;;;;19.67;7.15;;;7.60;99.90;;;;;;5035077;28;20026;-62
2023/12/27 09:35:11;;;;;;;18.35;6.88;;;7.70;99.90;;;;;;5034474;28;20026;-62
2023/12/27 09:37:37;;;;;;;16.77;7.15;;;7.60;99.90;;;;;;5034239;28;20033;-61
2023/12/27 09:40:04;;;;;;;20.85;7.28;;;7.80;99.90;;;;;;5034598;28;20026;-61
2023/12/27 09:42:32;;;;;;;22.52;8.45;;;7.70;99.90;;;;;;5033929;28;20026;-62
2023/12/27 09:45:00;;;;;;;20.40;8.45;;;7.70;99.90;;;;;;5034044;28;20026;-61
2023/12/27 09:47:28;;;;;;;16.88;7.05;;;7.40;99.90;;;;;;5034058;28;20026;-61
2023/12/27 09:49:56;;;;;;;24.75;8.15;;;7.40;99.90;;;;;;5034483;28;20025;-62
2023/12/27 09:52:23;;;;;;;19.75;7.63;;;7.60;99.90;;;;;;5034269;28;20119;-62
2023/12/27 09:54:49;;;;;;;18.27;8.27;;;7.60;99.90;;;;;;5034806;28;20030;-62
2023/12/27 09:57:16;;;;;;;14.77;6.68;;;7.90;99.90;;;;;;5033738;28;20084;-62
2023/12/27 09:59:45;;;;;;;20.27;8.38;;;7.90;99.90;;;;;;5033987;28;20030;-62
2023/12/27 10:02:29;;;;;;;18.92;8.57;;;7.90;99.90;;;;;;5034184;28;20030;-62
2023/12/27 10:05:06;;;;;;;22.58;9.52;;;7.80;99.90;;;;;;5034332;28;20022;-62
2023/12/27 10:07:32;;;;;;;19.70;7.75;;;7.60;99.90;;;;;;5017309;28;20084;-62
2023/12/27 10:09:58;;;;;;;19.02;7.90;;;7.70;99.90;;;;;;5034167;28;20022;-62
2023/12/27 10:12:24;;;;;;;14.23;7.65;;;7.90;99.90;;;;;;5033889;28;20121;-62
2023/12/27 10:14:51;;;;;;;17.45;8.00;;;7.90;99.90;;;;;;5034079;28;20025;-62
2023/12/27 10:17:17;;;;;;;24.48;8.15;;;8.00;99.90;;;;;;5033370;28;20117;-62
2023/12/27 10:19:44;;;;;;;18.10;7.00;;;7.90;99.90;;;;;;5033883;28;20065;-62
2023/12/27 10:22:12;;;;;;;21.25;7.28;;;7.90;99.90;;;;;;5033684;28;20056;-62
2023/12/27 10:24:38;;;;;;;15.02;6.80;;;8.00;99.90;;;;;;5033656;28;20087;-62
2023/12/27 10:27:09;;;;;;;18.20;7.75;;;8.00;99.90;;;;;;5033333;28;20097;-62
2023/12/27 10:29:35;;;;;;;16.52;6.22;;;8.30;99.90;;;;;;5033438;28;20050;-63
2023/12/27 10:32:03;;;;;;;14.63;6.88;;;8.40;99.90;;;;;;5033692;28;20108;-62
2023/12/27 10:34:29;;;;;;;18.00;6.88;;;8.40;99.90;;;;;;5033221;28;20018;-63
2023/12/27 10:36:56;;;;;;;12.40;6.45;;;8.30;99.90;;;;;;5033290;28;20022;-62
2023/12/27 10:39:22;;;;;;;19.20;6.93;;;8.20;99.90;;;;;;5033027;28;20026;-62
2023/12/27 10:41:51;;;;;;;12.57;6.03;;;8.30;99.90;;;;;;5033093;28;20025;-62
2023/12/27 10:44:18;;;;;;;14.95;6.22;;;8.50;99.90;;;;;;5033695;28;20022;-62
2023/12/27 10:46:44;;;;;;;17.67;6.22;;;8.60;99.90;;;;;;5033340;28;20053;-62
2023/12/27 10:49:13;;;;;;;11.77;6.13;;;8.60;99.90;;;;;;5033106;28;20018;-62
2023/12/27 10:51:40;;;;;;;11.40;6.47;;;8.50;99.90;;;;;;5033253;28;20026;-62
2023/12/27 10:54:06;;;;;;;12.70;6.43;;;8.50;99.90;;;;;;5033051;28;20026;-62
2023/12/27 10:56:39;;;;;;;13.18;7.22;;;8.50;99.90;;;;;;5033780;28;20021;-63
2023/12/27 10:59:06;;;;;;;14.07;6.40;;;8.40;99.90;;;;;;5033066;28;20022;-62
2023/12/27 11:01:38;;;;;;;15.50;5.93;;;8.40;99.90;;;;;;5032906;28;20022;-62
2023/12/27 11:04:08;;;;;;;24.45;7.93;;;8.50;99.90;;;;;;5033359;28;20091;-62
2023/12/27 11:06:38;;;;;;;13.15;5.90;;;8.60;99.90;;;;;;5032796;28;20033;-62
2023/12/27 11:09:07;;;;;;;10.38;5.85;;;8.60;99.90;;;;;;5032975;28;20099;-62
2023/12/27 11:11:40;;;;;;;16.83;6.05;;;8.50;99.90;;;;;;5032904;28;20026;-62
2023/12/27 11:14:08;;;;;;;12.68;6.32;;;8.50;99.90;;;;;;5033204;28;20026;-62
2023/12/27 11:16:35;;;;;;;17.88;6.28;;;8.60;99.90;;;;;;5033039;28;20030;-62
2023/12/27 11:19:02;;;;;;;11.18;5.22;;;8.70;99.90;;;;;;5032559;28;20030;-68
2023/12/27 11:21:28;;;;;;;10.80;5.47;;;8.80;99.90;;;;;;5032591;28;20034;-69
2023/12/27 11:23:54;;;;;;;10.73;5.38;;;8.90;99.90;;;;;;5033401;28;20026;-69
2023/12/27 11:26:20;;;;;;;11.52;6.15;;;8.90;99.90;;;;;;5033140;28;20018;-69
2023/12/27 11:28:46;;;;;;;11.27;6.18;;;9.00;99.90;;;;;;5032953;28;20014;-69
2023/12/27 11:31:13;;;;;;;9.25;5.45;;;8.80;99.90;;;;;;5032766;28;20029;-69
2023/12/27 11:33:42;;;;;;;11.73;6.25;;;8.90;99.90;;;;;;5034455;28;20056;-69
2023/12/27 11:36:08;;;;;;;10.93;6.15;;;8.90;99.90;;;;;;5036622;28;20026;-69
2023/12/27 11:38:34;;;;;;;15.90;5.75;;;9.10;99.90;;;;;;5036497;28;20164;-69
2023/12/27 11:41:01;;;;;;;14.85;5.82;;;9.10;99.90;;;;;;5036518;28;20045;-69
2023/12/27 11:43:46;;;;;;;11.98;5.47;;;9.10;99.90;;;;;;5036990;28;20084;-69
2023/12/27 11:46:13;;;;;;;9.55;6.10;;;9.10;99.90;;;;;;5035951;28;20088;-69
2023/12/27 11:48:38;;;;;;;12.13;5.95;;;9.10;99.90;;;;;;5036395;28;20024;-69
2023/12/27 11:51:41;;;;;;;7.25;5.00;;;9.10;99.90;;;;;;5036334;28;20120;-69
2023/12/27 11:54:07;;;;;;;9.98;5.43;;;9.20;99.90;;;;;;5036371;28;20033;-69
2023/12/27 11:56:35;;;;;;;8.52;4.32;;;9.30;99.90;;;;;;5035898;28;20022;-69
2023/12/27 11:59:01;;;;;;;10.02;5.05;;;9.40;99.90;;;;;;5036230;28;20029;-69
2023/12/27 12:01:31;;;;;;;11.52;5.63;;;9.40;99.90;;;;;;5036058;28;20025;-69
2023/12/27 12:04:38;;;;;;;10.43;6.25;;;9.30;99.90;;;;;;5036050;28;20116;-69
2023/12/27 12:07:28;;;;;;;8.40;5.13;;;9.30;99.90;;;;;;5036232;28;20022;-69
2023/12/27 12:09:54;;;;;;;8.52;5.43;;;9.20;99.90;;;;;;5035572;28;20084;-69
2023/12/27 12:12:22;;;;;;;10.55;5.38;;;9.20;99.90;;;;;;5036008;28;20108;-69
2023/12/27 12:14:51;;;;;;;9.05;4.57;;;9.40;99.90;;;;;;5035555;28;20022;-69
2023/12/27 12:17:19;;;;;;;10.07;5.05;;;9.40;99.90;;;;;;5035348;28;20034;-69
2023/12/27 12:19:44;;;;;;;10.10;6.20;;;9.40;99.90;;;;;;5036025;28;20124;-69
2023/12/27 12:22:13;;;;;;;7.40;4.43;;;9.60;99.90;;;;;;5036185;28;20117;-69
2023/12/27 12:24:39;;;;;;;7.28;4.57;;;9.60;99.90;;;;;;5035702;28;20041;-69
2023/12/27 12:27:05;;;;;;;8.05;4.38;;;9.70;99.90;;;;;;5035178;28;20022;-69
2023/12/27 12:29:31;;;;;;;12.15;5.05;;;9.60;99.90;;;;;;5036149;28;20033;-69
2023/12/27 12:31:56;;;;;;;7.05;3.92;;;9.70;99.90;;;;;;5035240;28;20076;-69
2023/12/27 12:34:23;;;;;;;8.90;4.13;;;9.80;99.90;;;;;;5035325;28;20030;-69
2023/12/27 12:36:52;;;;;;;7.05;4.45;;;9.80;99.90;;;;;;5035609;28;20033;-68
2023/12/27 12:39:22;;;;;;;9.52;4.20;;;9.80;99.90;;;;;;5035240;28;20029;-69
2023/12/27 12:41:48;;;;;;;10.88;4.82;;;9.60;99.90;;;;;;5035267;28;20029;-69
2023/12/27 12:44:14;;;;;;;15.50;5.13;;;9.60;99.90;;;;;;5035578;28;20018;-69
2023/12/27 12:46:40;;;;;;;5.95;4.18;;;9.60;99.90;;;;;;5034910;28;20029;-69